Preview of NWS' New Version of Forecast
This preview is not operational and should not be used for support decisions.

Terminal Aerodrome Forecast (TAF)

Issued by National Weather Service (NWS)

                            
000
FTUS42 KCAE 231700 AAB
TAFOGB
TAF AMD
KOGB 231700Z 2317/2412 VRB04KT P6SM VCTS BKN040CB
      TEMPO 2317/2321 VRB20KT 3SM TSRA BKN030CB
     FM240200 18004KT P6SM OVC150
     FM240800 00000KT 4SM BR BKN250=